createdAt,value
2022-10-19T00:01:21.578Z,186.65
2022-10-19T00:03:54.045Z,192.60
2022-10-19T00:06:27.827Z,136.32
2022-10-19T00:08:59.631Z,161.95
2022-10-19T00:11:29.463Z,180.18
2022-10-19T00:13:59.609Z,162.70
2022-10-19T00:16:31.086Z,135.35
2022-10-19T00:19:01.288Z,146.82
2022-10-19T00:21:31.448Z,172.98
2022-10-19T00:23:59.580Z,119.30
2022-10-19T00:26:27.932Z,132.32
2022-10-19T00:28:57.348Z,169.23
2022-10-19T00:31:26.715Z,155.93
2022-10-19T00:33:57.407Z,199.80
2022-10-19T00:36:29.638Z,268.80
2022-10-19T00:39:00.564Z,342.50
2022-10-19T00:41:32.295Z,213.05
2022-10-19T00:44:03.531Z,199.77
2022-10-19T00:46:34.462Z,234.48
2022-10-19T00:49:10.013Z,234.50
2022-10-19T00:51:45.228Z,223.15
2022-10-19T00:54:16.894Z,231.15
2022-10-19T00:56:48.514Z,233.10
2022-10-19T00:59:21.300Z,235.73
2022-10-19T01:01:50.526Z,276.00
2022-10-19T01:04:21.064Z,279.70
2022-10-19T01:09:19.266Z,293.00
2022-10-19T01:12:02.139Z,304.00
2022-10-19T01:14:43.844Z,232.20
2022-10-19T01:17:24.723Z,232.75
2022-10-19T01:20:33.641Z,254.27
2022-10-19T01:23:25.121Z,246.25
2022-10-19T01:26:08.333Z,238.95
2022-10-19T01:28:59.551Z,272.88
2022-10-19T01:31:39.072Z,269.65
2022-10-19T01:34:17.633Z,277.55
2022-10-19T01:37:00.594Z,271.70
2022-10-19T01:39:45.211Z,282.05
2022-10-19T01:42:25.333Z,314.50
2022-10-19T01:45:01.880Z,313.42
2022-10-19T01:47:40.125Z,345.27
2022-10-19T01:50:17.279Z,484.13
2022-10-19T01:55:19.263Z,224.88
2022-10-19T01:57:53.314Z,466.63
2022-10-19T02:00:24.774Z,225.23
2022-10-19T02:02:57.215Z,280.95
2022-10-19T02:05:32.942Z,321.55
2022-10-19T02:08:07.581Z,322.75
2022-10-19T02:10:39.442Z,341.45
2022-10-19T02:13:09.284Z,222.60
2022-10-19T02:15:42.916Z,287.10
2022-10-19T02:18:16.903Z,279.48
2022-10-19T02:20:45.535Z,363.60
2022-10-19T02:23:25.301Z,357.05
2022-10-19T02:25:53.889Z,317.88
2022-10-19T02:28:39.108Z,311.08
2022-10-19T02:35:16.481Z,341.63
2022-10-19T02:38:05.318Z,312.70
2022-10-19T02:40:47.675Z,290.15
2022-10-19T02:43:21.432Z,302.15
2022-10-19T02:45:59.946Z,312.02
2022-10-19T02:48:31.659Z,295.60
2022-10-19T02:50:59.856Z,275.63
2022-10-19T02:53:30.354Z,286.23
2022-10-19T02:55:58.736Z,296.58
2022-10-19T02:58:27.073Z,278.20
2022-10-19T03:00:56.355Z,271.75
2022-10-19T03:03:32.272Z,270.45
2022-10-19T03:06:15.685Z,275.08
2022-10-19T03:08:52.760Z,262.70
2022-10-19T03:13:50.039Z,265.70
2022-10-19T03:16:20.047Z,268.77
2022-10-19T03:18:51.108Z,284.75
2022-10-19T03:21:55.716Z,259.08
2022-10-19T03:24:25.904Z,250.32
2022-10-19T03:27:08.093Z,248.15
2022-10-19T03:29:36.541Z,233.57
2022-10-19T03:32:06.580Z,276.77
2022-10-19T03:34:38.195Z,257.67
2022-10-19T03:37:30.421Z,249.82
2022-10-19T03:40:26.625Z,234.05
2022-10-19T03:42:55.598Z,269.95
2022-10-19T03:45:34.156Z,249.82
2022-10-19T03:48:03.752Z,259.63
2022-10-19T03:50:32.462Z,266.85
2022-10-19T03:53:00.735Z,241.40
2022-10-19T03:55:31.842Z,254.45
2022-10-19T03:58:00.170Z,265.92
2022-10-19T04:00:28.425Z,229.20
2022-10-19T04:02:56.677Z,234.38
2022-10-19T04:05:25.087Z,232.52
2022-10-19T04:07:53.316Z,235.65
2022-10-19T04:10:21.672Z,219.90
2022-10-19T04:12:53.848Z,232.98
2022-10-19T04:15:22.388Z,225.65
2022-10-19T04:17:50.640Z,242.57
2022-10-19T04:20:18.968Z,280.75
2022-10-19T04:22:47.172Z,261.50
2022-10-19T04:25:15.360Z,277.50
2022-10-19T04:27:43.508Z,226.00
2022-10-19T04:30:13.472Z,249.80
2022-10-19T04:32:41.629Z,244.32
2022-10-19T04:35:10.202Z,229.98
2022-10-19T04:37:38.495Z,256.90
2022-10-19T04:40:14.191Z,250.07
2022-10-19T04:42:43.408Z,275.73
2022-10-19T04:45:13.348Z,247.18
2022-10-19T04:47:41.514Z,249.63
2022-10-19T04:50:10.694Z,268.40
2022-10-19T04:52:39.438Z,239.70
2022-10-19T04:55:08.356Z,258.95
2022-10-19T04:57:36.695Z,218.95
2022-10-19T05:00:07.131Z,210.35
2022-10-19T05:02:36.793Z,231.52
2022-10-19T05:05:05.534Z,216.40
2022-10-19T05:07:33.871Z,229.25
2022-10-19T05:10:02.427Z,202.55
2022-10-19T05:12:30.727Z,209.63
2022-10-19T05:14:59.013Z,196.88
2022-10-19T05:17:27.216Z,193.88
2022-10-19T05:19:57.410Z,206.85
2022-10-19T05:22:25.721Z,218.65
2022-10-19T05:24:57.345Z,222.57
2022-10-19T05:27:26.494Z,192.43
2022-10-19T05:29:54.726Z,203.32
2022-10-19T05:32:22.923Z,232.95
2022-10-19T05:34:51.165Z,201.65
2022-10-19T05:37:21.674Z,185.48
2022-10-19T05:39:49.889Z,190.32
2022-10-19T05:42:18.259Z,212.25
2022-10-19T05:44:46.441Z,183.90
2022-10-19T05:47:14.715Z,178.05
2022-10-19T05:49:43.060Z,199.60
2022-10-19T05:52:11.239Z,174.52
2022-10-19T05:54:41.331Z,181.85
2022-10-19T05:57:09.773Z,187.40
2022-10-19T05:59:42.429Z,184.55
2022-10-19T06:02:15.283Z,197.18
2022-10-19T06:04:43.759Z,174.48
2022-10-19T06:07:13.514Z,171.90
2022-10-19T06:09:43.909Z,190.57
2022-10-19T06:12:16.312Z,169.57
2022-10-19T06:17:13.217Z,139.57
2022-10-19T06:19:41.563Z,177.20
2022-10-19T06:22:09.888Z,161.82
2022-10-19T06:24:38.663Z,171.68
2022-10-19T06:27:09.159Z,158.75
2022-10-19T06:29:37.808Z,157.43
2022-10-19T06:32:06.508Z,149.80
2022-10-19T06:34:35.090Z,145.77
2022-10-19T06:37:03.334Z,152.48
2022-10-19T06:39:31.609Z,134.48
2022-10-19T06:42:00.075Z,127.50
2022-10-19T06:44:30.149Z,129.27
2022-10-19T06:46:58.547Z,127.30
2022-10-19T06:49:26.885Z,125.88
2022-10-19T06:51:55.175Z,115.57
2022-10-19T06:54:25.634Z,109.40
2022-10-19T06:56:54.195Z,100.72
2022-10-19T06:59:22.428Z,105.95
2022-10-19T07:01:52.067Z,109.22
2022-10-19T07:04:20.374Z,93.00
2022-10-19T07:06:48.628Z,88.82
2022-10-19T07:09:16.881Z,89.18
2022-10-19T07:11:46.258Z,74.63
2022-10-19T07:14:14.647Z,76.85
2022-10-19T07:16:42.965Z,76.43
2022-10-19T07:19:13.667Z,67.65
2022-10-19T07:21:43.926Z,61.92
2022-10-19T07:24:13.866Z,63.13
2022-10-19T07:26:42.223Z,54.28
2022-10-19T07:29:11.225Z,54.58
2022-10-19T07:31:39.478Z,54.78
2022-10-19T07:34:07.963Z,52.08
2022-10-19T07:36:38.101Z,43.95
2022-10-19T07:39:08.543Z,37.80
2022-10-19T07:41:36.803Z,31.80
2022-10-19T07:44:06.036Z,33.72
2022-10-19T07:46:37.029Z,32.33
2022-10-19T07:49:09.881Z,41.38
2022-10-19T07:51:39.868Z,32.38
2022-10-19T07:54:08.250Z,27.42
2022-10-19T07:56:37.197Z,27.85
2022-10-19T07:59:06.217Z,32.42
2022-10-19T08:01:43.129Z,25.58
2022-10-19T08:04:55.393Z,32.88
2022-10-19T08:07:00.979Z,32.15
2022-10-19T08:12:17.599Z,24.45
2022-10-19T08:14:45.841Z,29.33
2022-10-19T08:17:17.446Z,22.08
2022-10-19T08:19:46.143Z,24.25
2022-10-19T08:22:15.779Z,25.42
2022-10-19T08:24:44.040Z,26.08
2022-10-19T08:27:12.242Z,27.52
2022-10-19T08:29:40.560Z,24.40
2022-10-19T08:32:08.995Z,20.63
2022-10-19T08:34:37.177Z,18.45
2022-10-19T08:37:14.681Z,25.85
2022-10-19T08:39:55.537Z,19.13
2022-10-19T08:42:33.828Z,14.85
2022-10-19T08:45:31.892Z,14.70
2022-10-19T08:50:44.363Z,15.85
2022-10-19T08:53:19.540Z,15.55
2022-10-19T08:56:06.208Z,16.85
2022-10-19T08:58:53.359Z,16.80
2022-10-19T09:01:38.381Z,14.48
2022-10-19T09:04:16.287Z,12.68
2022-10-19T09:06:58.301Z,14.05
2022-10-19T09:09:31.128Z,15.07
2022-10-19T09:12:08.079Z,11.65
2022-10-19T09:14:54.751Z,11.25
2022-10-19T09:17:25.728Z,17.58
2022-10-19T09:19:54.566Z,12.63
2022-10-19T09:22:30.820Z,21.40
2022-10-19T09:25:07.359Z,14.50
2022-10-19T09:27:41.245Z,13.95
2022-10-19T09:30:20.684Z,13.18
2022-10-19T09:32:59.741Z,15.80
2022-10-19T09:35:33.483Z,20.17
2022-10-19T09:38:04.852Z,22.40
2022-10-19T09:40:33.553Z,12.75
2022-10-19T09:43:19.644Z,14.90
2022-10-19T09:45:55.099Z,13.02
2022-10-19T09:48:32.310Z,11.52
2022-10-19T09:51:03.184Z,9.75
2022-10-19T09:53:32.071Z,11.82
2022-10-19T09:56:06.934Z,7.70
2022-10-19T09:58:37.360Z,8.30
2022-10-19T10:01:06.007Z,7.18
2022-10-19T10:03:39.357Z,9.02
2022-10-19T10:06:11.271Z,10.20
2022-10-19T10:08:46.456Z,7.25
2022-10-19T10:11:23.289Z,7.85
2022-10-19T10:16:25.536Z,7.38
2022-10-19T10:18:59.168Z,5.85
2022-10-19T10:21:32.515Z,6.40
2022-10-19T10:24:05.866Z,7.28
2022-10-19T10:26:41.289Z,6.65
2022-10-19T10:29:21.567Z,8.93
2022-10-19T10:31:53.475Z,7.20
2022-10-19T10:34:46.324Z,7.13
2022-10-19T10:37:24.183Z,6.30
2022-10-19T10:39:57.714Z,6.93
2022-10-19T10:42:36.130Z,5.28
2022-10-19T10:45:18.704Z,6.17
2022-10-19T10:47:48.455Z,4.72
2022-10-19T10:50:25.558Z,4.95
2022-10-19T10:53:01.055Z,3.60
2022-10-19T10:55:31.539Z,4.25
2022-10-19T10:58:16.834Z,7.65
2022-10-19T11:00:50.239Z,3.05
2022-10-19T11:03:26.585Z,4.88
2022-10-19T11:05:59.863Z,6.30
2022-10-19T11:08:35.774Z,4.50
2022-10-19T11:11:16.796Z,4.93
2022-10-19T11:13:52.755Z,4.93
2022-10-19T11:16:30.811Z,3.40
2022-10-19T11:19:06.914Z,3.97
2022-10-19T11:21:45.394Z,4.35
2022-10-19T11:24:22.726Z,4.18
2022-10-19T11:27:12.254Z,3.83
2022-10-19T11:30:05.242Z,4.70
2022-10-19T11:32:51.180Z,5.10
2022-10-19T11:35:36.093Z,6.47
2022-10-19T11:38:29.643Z,5.15
2022-10-19T11:41:17.886Z,5.22
2022-10-19T11:44:14.547Z,2.65
2022-10-19T11:47:01.265Z,4.15
2022-10-19T11:49:47.731Z,4.88
2022-10-19T11:52:25.445Z,5.50
2022-10-19T11:55:15.875Z,3.25
2022-10-19T11:57:55.843Z,9.05
2022-10-19T12:00:38.630Z,2.72
2022-10-19T12:03:48.556Z,2.97
2022-10-19T12:06:28.752Z,4.30
2022-10-19T12:09:20.056Z,2.85
2022-10-19T12:12:17.579Z,5.60
2022-10-19T12:14:51.908Z,3.92
2022-10-19T12:17:28.911Z,4.15
2022-10-19T12:20:04.115Z,2.47
2022-10-19T12:22:38.406Z,4.75
2022-10-19T12:25:08.135Z,3.13
2022-10-19T12:27:40.382Z,2.83
2022-10-19T12:30:15.640Z,1.80
2022-10-19T12:33:01.807Z,2.20
2022-10-19T12:35:50.825Z,2.42
2022-10-19T12:38:30.166Z,6.28
2022-10-19T12:41:08.441Z,1.60
2022-10-19T12:43:45.963Z,1.42
2022-10-19T12:46:30.530Z,2.42
2022-10-19T12:49:47.047Z,2.53
2022-10-19T12:52:18.382Z,2.03
2022-10-19T12:54:48.063Z,1.77
2022-10-19T12:57:30.677Z,3.40
2022-10-19T13:00:07.683Z,2.08
2022-10-19T13:02:40.890Z,1.73
2022-10-19T13:05:09.431Z,3.38
2022-10-19T13:07:38.018Z,1.25
2022-10-19T13:10:21.487Z,3.55
2022-10-19T13:12:51.217Z,3.55
2022-10-19T13:15:59.287Z,3.05
2022-10-19T13:19:19.262Z,2.38
2022-10-19T13:22:27.550Z,3.67
2022-10-19T13:25:30.326Z,4.03
2022-10-19T13:28:03.696Z,1.85
2022-10-19T13:31:06.201Z,1.80
2022-10-19T13:33:47.907Z,1.20
2022-10-19T13:36:17.436Z,2.97
2022-10-19T13:38:49.319Z,2.95
2022-10-19T13:41:22.564Z,1.63
2022-10-19T13:44:04.812Z,2.40
2022-10-19T13:47:04.739Z,4.75
2022-10-19T13:50:17.162Z,4.13
2022-10-19T13:53:28.769Z,2.10
2022-10-19T13:56:30.355Z,3.08
2022-10-19T13:59:58.288Z,3.13
2022-10-19T14:03:05.464Z,2.22
2022-10-19T14:06:03.495Z,2.88
2022-10-19T14:09:16.789Z,3.17
2022-10-19T14:11:49.543Z,3.35
2022-10-19T14:14:22.787Z,3.83
2022-10-19T14:16:59.662Z,4.28
2022-10-19T14:19:34.547Z,3.22
2022-10-19T14:22:19.452Z,5.32
2022-10-19T14:24:47.798Z,3.42
2022-10-19T14:27:24.129Z,5.13
2022-10-19T14:29:55.238Z,3.47
2022-10-19T14:32:27.862Z,2.17
2022-10-19T14:37:33.759Z,5.57
2022-10-19T14:40:08.023Z,4.63
2022-10-19T14:42:45.609Z,4.63
2022-10-19T14:45:18.612Z,5.20
2022-10-19T14:47:56.130Z,5.43
2022-10-19T14:50:33.942Z,4.15
2022-10-19T14:53:33.227Z,4.95
2022-10-19T14:56:09.024Z,5.30
2022-10-19T14:58:46.055Z,3.58
2022-10-19T15:01:14.403Z,3.10
2022-10-19T15:03:45.850Z,2.67
2022-10-19T15:06:22.718Z,6.35
2022-10-19T15:11:31.454Z,6.47
2022-10-19T15:14:07.101Z,4.53
2022-10-19T15:16:45.115Z,3.80
2022-10-19T15:19:23.181Z,5.38
2022-10-19T15:22:38.157Z,8.00
2022-10-19T15:25:28.858Z,7.78
2022-10-19T15:27:57.688Z,17.25
2022-10-19T15:30:30.305Z,6.05
2022-10-19T15:33:15.173Z,5.32
2022-10-19T15:35:45.673Z,8.98
2022-10-19T15:38:23.895Z,9.32
2022-10-19T15:40:58.592Z,5.70
2022-10-19T15:43:40.166Z,8.00
2022-10-19T15:46:33.177Z,5.85
2022-10-19T15:49:05.548Z,8.70
2022-10-19T15:51:44.545Z,8.63
2022-10-19T15:54:15.854Z,9.20
2022-10-19T15:56:46.796Z,10.02
2022-10-19T15:59:18.308Z,11.40
2022-10-19T16:01:52.615Z,13.60
2022-10-19T16:04:23.216Z,11.90
2022-10-19T16:06:51.562Z,11.65
2022-10-19T16:09:22.752Z,8.98
2022-10-19T16:11:56.415Z,17.30
2022-10-19T16:14:26.240Z,15.80
2022-10-19T16:17:04.079Z,11.70
2022-10-19T16:19:32.182Z,11.10
2022-10-19T16:22:00.299Z,11.18
2022-10-19T16:24:28.409Z,11.90
2022-10-19T16:26:56.522Z,12.15
2022-10-19T16:29:28.215Z,16.58
2022-10-19T16:31:58.714Z,12.95
2022-10-19T16:34:26.889Z,15.07
2022-10-19T16:36:55.866Z,13.23
2022-10-19T16:39:25.498Z,15.65
2022-10-19T16:41:53.639Z,17.38
2022-10-19T16:44:21.688Z,19.30
2022-10-19T16:46:49.758Z,15.45
2022-10-19T16:49:19.253Z,13.70
2022-10-19T16:51:47.392Z,15.00
2022-10-19T16:54:17.508Z,19.27
2022-10-19T16:56:47.805Z,15.93
2022-10-19T16:59:19.115Z,14.60
2022-10-19T17:01:48.099Z,15.32
2022-10-19T17:04:18.862Z,17.45
2022-10-19T17:06:46.993Z,11.57
2022-10-19T17:09:41.383Z,13.05
2022-10-19T17:12:03.470Z,12.40
2022-10-19T17:14:31.559Z,16.40
2022-10-19T17:16:59.679Z,16.17
2022-10-19T17:19:29.195Z,11.68
2022-10-19T17:21:59.010Z,20.40
2022-10-19T17:24:27.669Z,14.60
2022-10-19T17:26:55.938Z,11.73
2022-10-19T17:29:24.747Z,20.38
2022-10-19T17:31:52.895Z,10.98
2022-10-19T17:34:21.010Z,11.38
2022-10-19T17:36:50.500Z,13.70
2022-10-19T17:39:25.645Z,13.50
2022-10-19T17:42:01.484Z,14.65
2022-10-19T17:44:31.919Z,17.75
2022-10-19T17:47:01.137Z,16.85
2022-10-19T17:49:30.311Z,20.48
2022-10-19T17:52:00.085Z,17.15
2022-10-19T17:54:28.370Z,16.15
2022-10-19T17:56:56.655Z,16.45
2022-10-19T17:59:34.703Z,20.85
2022-10-19T18:02:03.765Z,15.18
2022-10-19T18:04:31.926Z,22.38
2022-10-19T18:07:01.386Z,17.30
2022-10-19T18:09:29.382Z,16.40
2022-10-19T18:11:57.505Z,17.65
2022-10-19T18:14:25.577Z,18.25
2022-10-19T18:16:53.656Z,18.10
2022-10-19T18:19:21.736Z,18.77
2022-10-19T18:21:49.870Z,16.58
2022-10-19T18:24:21.297Z,13.18
2022-10-19T18:26:50.928Z,16.70
2022-10-19T18:29:23.809Z,18.95
2022-10-19T18:31:52.642Z,18.08
2022-10-19T18:34:23.568Z,15.90
2022-10-19T18:36:52.580Z,19.38
2022-10-19T18:39:22.340Z,14.68
2022-10-19T18:41:54.363Z,17.17
2022-10-19T18:44:27.018Z,13.05
2022-10-19T18:46:56.825Z,14.43
2022-10-19T18:49:25.789Z,12.73
2022-10-19T18:51:55.663Z,12.68
2022-10-19T18:54:28.035Z,13.82
2022-10-19T18:56:56.573Z,11.75
2022-10-19T18:59:24.865Z,13.48
2022-10-19T19:01:53.055Z,14.32
2022-10-19T19:04:21.356Z,11.93
2022-10-19T19:06:49.455Z,19.73
2022-10-19T19:09:18.836Z,17.77
2022-10-19T19:11:48.570Z,13.85
2022-10-19T19:14:21.495Z,20.42
2022-10-19T19:16:49.815Z,22.30
2022-10-19T19:19:20.366Z,17.95
2022-10-19T19:21:49.911Z,17.25
2022-10-19T19:24:21.774Z,15.55
2022-10-19T19:26:54.799Z,17.85
2022-10-19T19:29:23.516Z,18.30
2022-10-19T19:31:53.384Z,22.50
2022-10-19T19:34:21.784Z,17.55
2022-10-19T19:36:49.959Z,19.25
2022-10-19T19:39:21.366Z,24.48
2022-10-19T19:41:51.206Z,21.50
2022-10-19T19:44:19.904Z,24.75
2022-10-19T19:46:48.513Z,22.85
2022-10-19T19:49:17.605Z,24.85
2022-10-19T19:51:45.841Z,24.33
2022-10-19T19:54:13.905Z,29.05
2022-10-19T19:56:43.106Z,23.90
2022-10-19T19:59:14.033Z,24.40
2022-10-19T20:01:43.485Z,20.98
2022-10-19T20:04:12.479Z,22.77
2022-10-19T20:06:44.495Z,17.38
2022-10-19T20:09:13.014Z,16.33
2022-10-19T20:11:42.599Z,19.02
2022-10-19T20:14:12.762Z,25.55
2022-10-19T20:16:41.337Z,26.50
2022-10-19T20:19:12.445Z,23.10
2022-10-19T20:21:42.035Z,25.48
2022-10-19T20:24:11.369Z,28.95
2022-10-19T20:26:39.518Z,27.85
2022-10-19T20:29:07.732Z,26.55
2022-10-19T20:31:39.404Z,24.38
2022-10-19T20:34:13.785Z,20.55
2022-10-19T20:36:42.523Z,19.52
2022-10-19T20:39:11.203Z,17.67
2022-10-19T20:41:39.468Z,21.45
2022-10-19T20:44:07.498Z,19.92
2022-10-19T20:46:37.731Z,22.45
2022-10-19T20:49:07.306Z,21.00
2022-10-19T20:51:37.870Z,20.48
2022-10-19T20:54:08.942Z,16.55
2022-10-19T20:56:40.027Z,17.60
2022-10-19T20:59:12.011Z,16.48
2022-10-19T21:01:43.798Z,19.67
2022-10-19T21:04:14.770Z,13.60
2022-10-19T21:06:45.877Z,17.38
2022-10-19T21:09:16.759Z,18.15
2022-10-19T21:11:47.208Z,15.38
2022-10-19T21:14:17.758Z,16.50
2022-10-19T21:16:47.527Z,15.05
2022-10-19T21:19:18.833Z,17.00
2022-10-19T21:21:51.753Z,17.00
2022-10-19T21:24:23.343Z,19.35
2022-10-19T21:29:24.627Z,16.50
2022-10-19T21:31:54.719Z,21.08
2022-10-19T21:34:25.662Z,18.63
2022-10-19T21:36:54.701Z,19.35
2022-10-19T21:39:23.439Z,16.38
2022-10-19T21:41:51.634Z,17.80
2022-10-19T21:44:23.010Z,17.23
2022-10-19T21:46:51.704Z,22.20
2022-10-19T21:49:21.477Z,20.02
2022-10-19T21:51:53.573Z,23.50
2022-10-19T21:54:25.416Z,20.58
2022-10-19T21:56:55.701Z,26.02
2022-10-19T21:59:23.788Z,17.33
2022-10-19T22:01:51.914Z,24.02
2022-10-19T22:04:22.072Z,16.10
2022-10-19T22:06:50.766Z,19.88
2022-10-19T22:09:21.534Z,18.05
2022-10-19T22:11:49.934Z,17.92
2022-10-19T22:14:18.902Z,21.40
2022-10-19T22:16:47.381Z,27.73
2022-10-19T22:19:15.639Z,21.48
2022-10-19T22:21:45.111Z,19.38
2022-10-19T22:24:16.332Z,24.67
2022-10-19T22:26:47.428Z,22.52
2022-10-19T22:29:15.778Z,21.45
2022-10-19T22:31:44.725Z,21.70
2022-10-19T22:34:16.666Z,34.17
2022-10-19T22:36:46.720Z,22.85
2022-10-19T22:39:15.570Z,23.00
2022-10-19T22:41:43.603Z,20.20
2022-10-19T22:44:11.706Z,20.20
2022-10-19T22:46:39.865Z,25.35
2022-10-19T22:51:42.024Z,18.83
2022-10-19T22:54:11.410Z,18.35
2022-10-19T22:56:39.812Z,21.20
2022-10-19T22:59:08.755Z,19.00
2022-10-19T23:01:38.031Z,19.98
2022-10-19T23:04:06.119Z,19.75
2022-10-19T23:06:34.290Z,21.42
2022-10-19T23:09:02.420Z,29.38
2022-10-19T23:11:31.879Z,23.02
2022-10-19T23:13:59.937Z,22.85
2022-10-19T23:19:01.326Z,23.13
2022-10-19T23:21:29.372Z,18.70
2022-10-19T23:23:57.454Z,22.83
2022-10-19T23:26:26.773Z,26.85
2022-10-19T23:28:56.160Z,20.85
2022-10-19T23:31:30.036Z,18.75
2022-10-19T23:33:58.063Z,22.90
2022-10-19T23:36:28.978Z,19.60
2022-10-19T23:38:58.992Z,22.27
2022-10-19T23:41:27.631Z,17.70
2022-10-19T23:43:57.093Z,15.73
2022-10-19T23:46:25.237Z,20.42
2022-10-19T23:48:53.310Z,26.60
2022-10-19T23:51:23.234Z,22.08
2022-10-19T23:53:53.728Z,24.05
2022-10-19T23:56:24.628Z,23.50
2022-10-19T23:58:53.660Z,21.58
